Terminal Aerodrome Forecast
Issued by NWS Shreveport, LA

Home | Current Version | Previous Version | Text Only | Print | Product List | Glossary On
Versions: 1 2 3 4 5 6 7 8 9 10 11 12 13 14 15 16 17
528
FTUS44 KSHV 082323
TAFGGG
TAF
KGGG 082323Z 0900/0924 30012KT P6SM SKC
      TEMPO 0900/0902 31014G24KT
     FM091500 31014G24KT P6SM SKC=

USA.gov is the U.S. government's official web portal to all federal, state and local government web resources and services.